sensor_id;sensor_type;location;lat;lon;timestamp;temperature;humidity
5324;DHT22;2684;48.154;11.538;2022-09-03T00:00:53;14.90;99.90
5324;DHT22;2684;48.154;11.538;2022-09-03T00:03:27;15.00;99.90
5324;DHT22;2684;48.154;11.538;2022-09-03T00:06:10;15.00;99.90
5324;DHT22;2684;48.154;11.538;2022-09-03T00:08:43;15.00;99.90
5324;DHT22;2684;48.154;11.538;2022-09-03T00:11:15;15.00;99.90
5324;DHT22;2684;48.154;11.538;2022-09-03T00:13:48;15.00;99.90
5324;DHT22;2684;48.154;11.538;2022-09-03T00:16:20;15.00;99.90
5324;DHT22;2684;48.154;11.538;2022-09-03T00:18:54;14.80;99.90
5324;DHT22;2684;48.154;11.538;2022-09-03T00:28:13;15.00;99.90
5324;DHT22;2684;48.154;11.538;2022-09-03T00:30:45;15.00;99.90
5324;DHT22;2684;48.154;11.538;2022-09-03T00:33:18;14.90;99.90
5324;DHT22;2684;48.154;11.538;2022-09-03T00:36:01;14.90;99.90
5324;DHT22;2684;48.154;11.538;2022-09-03T00:38:29;14.90;99.90
5324;DHT22;2684;48.154;11.538;2022-09-03T00:41:05;14.80;99.90
5324;DHT22;2684;48.154;11.538;2022-09-03T00:43:47;14.80;99.90
5324;DHT22;2684;48.154;11.538;2022-09-03T00:46:23;14.70;99.90
5324;DHT22;2684;48.154;11.538;2022-09-03T00:49:10;14.60;99.90
5324;DHT22;2684;48.154;11.538;2022-09-03T00:51:43;14.50;99.90
5324;DHT22;2684;48.154;11.538;2022-09-03T00:54:21;14.50;99.90
5324;DHT22;2684;48.154;11.538;2022-09-03T00:56:56;14.50;99.90
5324;DHT22;2684;48.154;11.538;2022-09-03T00:59:37;14.50;99.90
5324;DHT22;2684;48.154;11.538;2022-09-03T01:02:15;14.50;99.90
5324;DHT22;2684;48.154;11.538;2022-09-03T01:04:52;14.50;99.90
5324;DHT22;2684;48.154;11.538;2022-09-03T01:07:32;14.50;99.90
5324;DHT22;2684;48.154;11.538;2022-09-03T01:10:09;14.50;99.90
5324;DHT22;2684;48.154;11.538;2022-09-03T01:12:53;14.50;99.90
5324;DHT22;2684;48.154;11.538;2022-09-03T01:15:29;14.50;99.90
5324;DHT22;2684;48.154;11.538;2022-09-03T01:18:10;14.40;99.90
5324;DHT22;2684;48.154;11.538;2022-09-03T01:20:49;14.40;99.90
5324;DHT22;2684;48.154;11.538;2022-09-03T01:23:42;14.40;99.90
5324;DHT22;2684;48.154;11.538;2022-09-03T01:26:34;14.30;99.90
5324;DHT22;2684;48.154;11.538;2022-09-03T01:29:13;14.30;99.90
5324;DHT22;2684;48.154;11.538;2022-09-03T01:31:52;14.20;99.90
5324;DHT22;2684;48.154;11.538;2022-09-03T01:34:31;14.20;99.90
5324;DHT22;2684;48.154;11.538;2022-09-03T01:37:11;14.10;99.90
5324;DHT22;2684;48.154;11.538;2022-09-03T01:39:48;14.00;99.90
5324;DHT22;2684;48.154;11.538;2022-09-03T01:42:27;14.00;99.90
5324;DHT22;2684;48.154;11.538;2022-09-03T01:45:26;14.00;99.90
5324;DHT22;2684;48.154;11.538;2022-09-03T01:48:07;14.00;99.90
5324;DHT22;2684;48.154;11.538;2022-09-03T01:50:45;13.90;99.90
5324;DHT22;2684;48.154;11.538;2022-09-03T01:53:24;13.90;99.90
5324;DHT22;2684;48.154;11.538;2022-09-03T01:56:06;13.90;99.90
5324;DHT22;2684;48.154;11.538;2022-09-03T01:58:41;13.90;99.90
5324;DHT22;2684;48.154;11.538;2022-09-03T02:01:16;13.90;99.90
5324;DHT22;2684;48.154;11.538;2022-09-03T02:03:46;13.80;99.90
5324;DHT22;2684;48.154;11.538;2022-09-03T02:06:14;13.80;99.90
5324;DHT22;2684;48.154;11.538;2022-09-03T02:08:45;13.80;99.90
5324;DHT22;2684;48.154;11.538;2022-09-03T02:11:12;13.80;99.90
5324;DHT22;2684;48.154;11.538;2022-09-03T02:13:41;13.70;99.90
5324;DHT22;2684;48.154;11.538;2022-09-03T02:16:14;13.70;99.90
5324;DHT22;2684;48.154;11.538;2022-09-03T02:18:45;13.70;99.90
5324;DHT22;2684;48.154;11.538;2022-09-03T02:21:16;13.60;99.90
5324;DHT22;2684;48.154;11.538;2022-09-03T02:23:44;13.60;99.90
5324;DHT22;2684;48.154;11.538;2022-09-03T02:26:12;13.50;99.90
5324;DHT22;2684;48.154;11.538;2022-09-03T02:28:42;13.50;99.90
5324;DHT22;2684;48.154;11.538;2022-09-03T02:31:10;13.50;99.90
5324;DHT22;2684;48.154;11.538;2022-09-03T02:33:42;13.50;99.90
5324;DHT22;2684;48.154;11.538;2022-09-03T02:36:13;13.50;99.90
5324;DHT22;2684;48.154;11.538;2022-09-03T02:38:42;13.50;99.90
5324;DHT22;2684;48.154;11.538;2022-09-03T02:41:10;13.40;99.90
5324;DHT22;2684;48.154;11.538;2022-09-03T02:43:43;13.40;99.90
5324;DHT22;2684;48.154;11.538;2022-09-03T02:46:15;13.40;99.90
5324;DHT22;2684;48.154;11.538;2022-09-03T02:48:46;13.40;99.90
5324;DHT22;2684;48.154;11.538;2022-09-03T02:51:13;13.40;99.90
5324;DHT22;2684;48.154;11.538;2022-09-03T02:53:41;13.40;99.90
5324;DHT22;2684;48.154;11.538;2022-09-03T02:56:08;13.40;99.90
5324;DHT22;2684;48.154;11.538;2022-09-03T02:58:36;13.30;99.90
5324;DHT22;2684;48.154;11.538;2022-09-03T03:01:03;13.30;99.90
5324;DHT22;2684;48.154;11.538;2022-09-03T03:03:31;13.20;99.90
5324;DHT22;2684;48.154;11.538;2022-09-03T03:06:01;13.20;99.90
5324;DHT22;2684;48.154;11.538;2022-09-03T03:08:29;13.20;99.90
5324;DHT22;2684;48.154;11.538;2022-09-03T03:10:58;13.20;99.90
5324;DHT22;2684;48.154;11.538;2022-09-03T03:13:25;13.20;99.90
5324;DHT22;2684;48.154;11.538;2022-09-03T03:15:55;13.20;99.90
5324;DHT22;2684;48.154;11.538;2022-09-03T03:18:23;13.30;99.90
5324;DHT22;2684;48.154;11.538;2022-09-03T03:20:50;13.20;99.90
5324;DHT22;2684;48.154;11.538;2022-09-03T03:23:19;13.20;99.90
5324;DHT22;2684;48.154;11.538;2022-09-03T03:25:46;13.10;99.90
5324;DHT22;2684;48.154;11.538;2022-09-03T03:28:13;13.10;99.90
5324;DHT22;2684;48.154;11.538;2022-09-03T03:30:40;13.10;99.90
5324;DHT22;2684;48.154;11.538;2022-09-03T03:33:07;13.20;99.90
5324;DHT22;2684;48.154;11.538;2022-09-03T03:35:35;13.10;99.90
5324;DHT22;2684;48.154;11.538;2022-09-03T03:38:02;13.10;99.90
5324;DHT22;2684;48.154;11.538;2022-09-03T03:40:32;13.10;99.90
5324;DHT22;2684;48.154;11.538;2022-09-03T03:42:59;13.10;99.90
5324;DHT22;2684;48.154;11.538;2022-09-03T03:45:26;13.10;99.90
5324;DHT22;2684;48.154;11.538;2022-09-03T03:47:56;13.10;99.90
5324;DHT22;2684;48.154;11.538;2022-09-03T03:50:24;13.10;99.90
5324;DHT22;2684;48.154;11.538;2022-09-03T03:52:50;13.10;99.90
5324;DHT22;2684;48.154;11.538;2022-09-03T03:55:17;13.00;99.90
5324;DHT22;2684;48.154;11.538;2022-09-03T03:57:46;13.10;99.90
5324;DHT22;2684;48.154;11.538;2022-09-03T04:00:14;13.00;99.90
5324;DHT22;2684;48.154;11.538;2022-09-03T04:02:41;13.00;99.90
5324;DHT22;2684;48.154;11.538;2022-09-03T04:05:08;13.00;99.90
5324;DHT22;2684;48.154;11.538;2022-09-03T04:07:35;13.00;99.90
5324;DHT22;2684;48.154;11.538;2022-09-03T04:10:02;12.90;99.90
5324;DHT22;2684;48.154;11.538;2022-09-03T04:12:29;12.90;99.90
5324;DHT22;2684;48.154;11.538;2022-09-03T04:14:59;13.00;99.90
5324;DHT22;2684;48.154;11.538;2022-09-03T04:17:27;13.00;99.90
5324;DHT22;2684;48.154;11.538;2022-09-03T04:19:54;13.00;99.90
5324;DHT22;2684;48.154;11.538;2022-09-03T04:22:21;13.00;99.90
5324;DHT22;2684;48.154;11.538;2022-09-03T04:24:47;13.00;99.90
5324;DHT22;2684;48.154;11.538;2022-09-03T04:27:14;13.10;99.90
5324;DHT22;2684;48.154;11.538;2022-09-03T04:29:41;13.20;99.90
5324;DHT22;2684;48.154;11.538;2022-09-03T04:32:10;13.20;99.90
5324;DHT22;2684;48.154;11.538;2022-09-03T04:34:54;13.30;99.90
5324;DHT22;2684;48.154;11.538;2022-09-03T04:37:21;13.30;99.90
5324;DHT22;2684;48.154;11.538;2022-09-03T04:39:49;13.40;99.90
5324;DHT22;2684;48.154;11.538;2022-09-03T04:42:16;13.50;99.90
5324;DHT22;2684;48.154;11.538;2022-09-03T04:44:43;13.70;99.90
5324;DHT22;2684;48.154;11.538;2022-09-03T04:47:11;13.70;99.90
5324;DHT22;2684;48.154;11.538;2022-09-03T04:49:39;13.70;99.90
5324;DHT22;2684;48.154;11.538;2022-09-03T04:52:06;13.80;99.90
5324;DHT22;2684;48.154;11.538;2022-09-03T04:54:34;13.80;99.90
5324;DHT22;2684;48.154;11.538;2022-09-03T04:57:01;13.90;99.90
5324;DHT22;2684;48.154;11.538;2022-09-03T04:59:28;13.90;99.90
5324;DHT22;2684;48.154;11.538;2022-09-03T05:01:55;14.00;99.90
5324;DHT22;2684;48.154;11.538;2022-09-03T05:04:24;14.00;99.90
5324;DHT22;2684;48.154;11.538;2022-09-03T05:06:52;14.10;99.90
5324;DHT22;2684;48.154;11.538;2022-09-03T05:09:19;14.10;99.90
5324;DHT22;2684;48.154;11.538;2022-09-03T05:11:45;14.20;99.90
5324;DHT22;2684;48.154;11.538;2022-09-03T05:14:12;14.20;99.90
5324;DHT22;2684;48.154;11.538;2022-09-03T05:16:39;14.30;99.90
5324;DHT22;2684;48.154;11.538;2022-09-03T05:19:06;14.30;99.90
5324;DHT22;2684;48.154;11.538;2022-09-03T05:28:24;14.50;99.90
5324;DHT22;2684;48.154;11.538;2022-09-03T05:30:58;14.40;99.90
5324;DHT22;2684;48.154;11.538;2022-09-03T05:33:25;14.40;99.90
5324;DHT22;2684;48.154;11.538;2022-09-03T05:35:52;14.40;99.90
5324;DHT22;2684;48.154;11.538;2022-09-03T05:38:19;14.30;99.90
5324;DHT22;2684;48.154;11.538;2022-09-03T05:40:46;14.30;99.90
5324;DHT22;2684;48.154;11.538;2022-09-03T05:43:14;14.30;99.90
5324;DHT22;2684;48.154;11.538;2022-09-03T05:45:43;14.30;99.90
5324;DHT22;2684;48.154;11.538;2022-09-03T05:48:10;14.30;99.90
5324;DHT22;2684;48.154;11.538;2022-09-03T05:50:37;14.40;99.90
5324;DHT22;2684;48.154;11.538;2022-09-03T05:53:04;14.50;99.90
5324;DHT22;2684;48.154;11.538;2022-09-03T05:55:31;14.50;99.90
5324;DHT22;2684;48.154;11.538;2022-09-03T05:57:58;14.60;99.90
5324;DHT22;2684;48.154;11.538;2022-09-03T06:00:26;14.60;99.90
5324;DHT22;2684;48.154;11.538;2022-09-03T06:02:54;14.70;99.90
5324;DHT22;2684;48.154;11.538;2022-09-03T06:05:22;14.80;99.90
5324;DHT22;2684;48.154;11.538;2022-09-03T06:07:50;14.90;99.90
5324;DHT22;2684;48.154;11.538;2022-09-03T06:10:17;15.00;99.90
5324;DHT22;2684;48.154;11.538;2022-09-03T06:12:44;15.10;99.90
5324;DHT22;2684;48.154;11.538;2022-09-03T06:15:14;15.10;99.90
5324;DHT22;2684;48.154;11.538;2022-09-03T06:17:41;15.20;99.90
5324;DHT22;2684;48.154;11.538;2022-09-03T06:20:10;15.20;99.90
5324;DHT22;2684;48.154;11.538;2022-09-03T06:22:36;15.20;99.90
5324;DHT22;2684;48.154;11.538;2022-09-03T06:25:04;15.20;99.90
5324;DHT22;2684;48.154;11.538;2022-09-03T06:27:32;15.30;99.90
5324;DHT22;2684;48.154;11.538;2022-09-03T06:29:58;15.40;99.90
5324;DHT22;2684;48.154;11.538;2022-09-03T06:32:25;15.50;99.90
5324;DHT22;2684;48.154;11.538;2022-09-03T06:34:53;15.50;99.90
5324;DHT22;2684;48.154;11.538;2022-09-03T06:37:21;15.60;99.90
5324;DHT22;2684;48.154;11.538;2022-09-03T06:39:48;15.70;99.90
5324;DHT22;2684;48.154;11.538;2022-09-03T06:42:16;15.70;99.90
5324;DHT22;2684;48.154;11.538;2022-09-03T06:44:43;15.70;99.90
5324;DHT22;2684;48.154;11.538;2022-09-03T06:47:10;15.80;99.90
5324;DHT22;2684;48.154;11.538;2022-09-03T06:49:37;15.70;99.90
5324;DHT22;2684;48.154;11.538;2022-09-03T06:52:04;15.70;99.90
5324;DHT22;2684;48.154;11.538;2022-09-03T06:54:32;15.60;99.90
5324;DHT22;2684;48.154;11.538;2022-09-03T06:56:59;15.50;99.90
5324;DHT22;2684;48.154;11.538;2022-09-03T06:59:26;15.60;99.90
5324;DHT22;2684;48.154;11.538;2022-09-03T07:01:53;15.60;99.90
5324;DHT22;2684;48.154;11.538;2022-09-03T07:04:20;15.60;99.90
5324;DHT22;2684;48.154;11.538;2022-09-03T07:06:49;15.60;99.90
5324;DHT22;2684;48.154;11.538;2022-09-03T07:09:16;15.50;99.90
5324;DHT22;2684;48.154;11.538;2022-09-03T07:11:45;15.50;99.90
5324;DHT22;2684;48.154;11.538;2022-09-03T07:14:16;15.60;99.90
5324;DHT22;2684;48.154;11.538;2022-09-03T07:16:43;15.60;99.90
5324;DHT22;2684;48.154;11.538;2022-09-03T07:19:10;15.60;99.90
5324;DHT22;2684;48.154;11.538;2022-09-03T07:21:38;15.50;99.90
5324;DHT22;2684;48.154;11.538;2022-09-03T07:24:06;15.50;99.90
5324;DHT22;2684;48.154;11.538;2022-09-03T07:26:35;15.60;99.90
5324;DHT22;2684;48.154;11.538;2022-09-03T07:29:04;15.50;99.90
5324;DHT22;2684;48.154;11.538;2022-09-03T07:31:33;15.60;99.90
5324;DHT22;2684;48.154;11.538;2022-09-03T07:34:02;15.60;99.90
5324;DHT22;2684;48.154;11.538;2022-09-03T07:36:34;15.70;99.90
5324;DHT22;2684;48.154;11.538;2022-09-03T07:39:03;15.70;99.90
5324;DHT22;2684;48.154;11.538;2022-09-03T07:41:30;15.80;99.90
5324;DHT22;2684;48.154;11.538;2022-09-03T07:43:58;15.80;99.90
5324;DHT22;2684;48.154;11.538;2022-09-03T07:46:33;15.90;99.90
5324;DHT22;2684;48.154;11.538;2022-09-03T07:49:01;15.90;99.90
5324;DHT22;2684;48.154;11.538;2022-09-03T07:51:29;16.00;99.90
5324;DHT22;2684;48.154;11.538;2022-09-03T07:53:58;16.10;99.90
5324;DHT22;2684;48.154;11.538;2022-09-03T07:56:27;16.10;99.90
5324;DHT22;2684;48.154;11.538;2022-09-03T07:58:55;16.10;99.90
5324;DHT22;2684;48.154;11.538;2022-09-03T08:01:24;16.20;99.90
5324;DHT22;2684;48.154;11.538;2022-09-03T08:03:54;16.30;99.90
5324;DHT22;2684;48.154;11.538;2022-09-03T08:06:23;16.30;99.90
5324;DHT22;2684;48.154;11.538;2022-09-03T08:08:54;16.40;99.90
5324;DHT22;2684;48.154;11.538;2022-09-03T08:11:23;16.50;99.90
5324;DHT22;2684;48.154;11.538;2022-09-03T08:13:54;16.50;99.90
5324;DHT22;2684;48.154;11.538;2022-09-03T08:16:22;16.50;99.90
5324;DHT22;2684;48.154;11.538;2022-09-03T08:18:49;16.60;99.90
5324;DHT22;2684;48.154;11.538;2022-09-03T08:21:18;16.80;99.90
5324;DHT22;2684;48.154;11.538;2022-09-03T08:23:47;16.90;99.90
5324;DHT22;2684;48.154;11.538;2022-09-03T08:26:16;17.10;99.90
5324;DHT22;2684;48.154;11.538;2022-09-03T08:28:43;17.30;99.90
5324;DHT22;2684;48.154;11.538;2022-09-03T08:31:12;17.40;99.90
5324;DHT22;2684;48.154;11.538;2022-09-03T08:33:40;17.50;99.90
5324;DHT22;2684;48.154;11.538;2022-09-03T08:36:09;17.40;99.90
5324;DHT22;2684;48.154;11.538;2022-09-03T08:38:39;17.60;99.90
5324;DHT22;2684;48.154;11.538;2022-09-03T08:41:12;17.80;99.90
5324;DHT22;2684;48.154;11.538;2022-09-03T08:46:45;17.90;99.90
5324;DHT22;2684;48.154;11.538;2022-09-03T08:49:15;18.30;99.90
5324;DHT22;2684;48.154;11.538;2022-09-03T08:51:44;18.50;99.90
5324;DHT22;2684;48.154;11.538;2022-09-03T08:54:15;18.60;99.90
5324;DHT22;2684;48.154;11.538;2022-09-03T08:56:45;18.70;99.90
5324;DHT22;2684;48.154;11.538;2022-09-03T08:59:12;18.80;99.90
5324;DHT22;2684;48.154;11.538;2022-09-03T09:01:47;19.20;99.90
5324;DHT22;2684;48.154;11.538;2022-09-03T09:04:28;19.30;99.90
5324;DHT22;2684;48.154;11.538;2022-09-03T09:07:02;19.50;99.90
5324;DHT22;2684;48.154;11.538;2022-09-03T09:09:37;20.00;99.90
5324;DHT22;2684;48.154;11.538;2022-09-03T09:12:17;20.20;99.90
5324;DHT22;2684;48.154;11.538;2022-09-03T09:14:54;20.20;99.90
5324;DHT22;2684;48.154;11.538;2022-09-03T09:17:41;20.30;99.90
5324;DHT22;2684;48.154;11.538;2022-09-03T09:20:16;20.50;99.90
5324;DHT22;2684;48.154;11.538;2022-09-03T09:22:46;20.50;99.90
5324;DHT22;2684;48.154;11.538;2022-09-03T09:25:19;20.60;99.90
5324;DHT22;2684;48.154;11.538;2022-09-03T09:27:50;20.70;99.90
5324;DHT22;2684;48.154;11.538;2022-09-03T09:30:18;20.80;99.90
5324;DHT22;2684;48.154;11.538;2022-09-03T09:32:45;21.30;99.90
5324;DHT22;2684;48.154;11.538;2022-09-03T09:35:13;21.50;99.90
5324;DHT22;2684;48.154;11.538;2022-09-03T09:37:51;21.50;99.90
5324;DHT22;2684;48.154;11.538;2022-09-03T09:40:35;21.70;99.90
5324;DHT22;2684;48.154;11.538;2022-09-03T09:43:08;22.00;99.90
5324;DHT22;2684;48.154;11.538;2022-09-03T09:45:37;22.00;99.90
5324;DHT22;2684;48.154;11.538;2022-09-03T09:48:09;22.30;99.90
5324;DHT22;2684;48.154;11.538;2022-09-03T09:50:38;22.60;99.90
5324;DHT22;2684;48.154;11.538;2022-09-03T09:53:07;22.70;99.90
5324;DHT22;2684;48.154;11.538;2022-09-03T09:55:51;22.80;99.90
5324;DHT22;2684;48.154;11.538;2022-09-03T09:58:19;22.40;99.90
5324;DHT22;2684;48.154;11.538;2022-09-03T10:01:01;22.20;99.90
5324;DHT22;2684;48.154;11.538;2022-09-03T10:03:32;22.20;99.90
5324;DHT22;2684;48.154;11.538;2022-09-03T10:06:03;22.20;99.90
5324;DHT22;2684;48.154;11.538;2022-09-03T10:08:52;22.30;99.90
5324;DHT22;2684;48.154;11.538;2022-09-03T10:11:22;22.30;99.90
5324;DHT22;2684;48.154;11.538;2022-09-03T10:13:53;22.40;99.90
5324;DHT22;2684;48.154;11.538;2022-09-03T10:16:26;22.60;99.90
5324;DHT22;2684;48.154;11.538;2022-09-03T10:19:04;22.80;99.90
5324;DHT22;2684;48.154;11.538;2022-09-03T10:21:40;23.00;99.90
5324;DHT22;2684;48.154;11.538;2022-09-03T10:24:36;23.30;99.90
5324;DHT22;2684;48.154;11.538;2022-09-03T10:27:08;23.40;99.90
5324;DHT22;2684;48.154;11.538;2022-09-03T10:29:38;23.70;99.90
5324;DHT22;2684;48.154;11.538;2022-09-03T10:32:16;23.80;99.90
5324;DHT22;2684;48.154;11.538;2022-09-03T10:34:54;23.90;99.90
5324;DHT22;2684;48.154;11.538;2022-09-03T10:37:31;23.70;99.90
5324;DHT22;2684;48.154;11.538;2022-09-03T10:40:11;24.00;99.90
5324;DHT22;2684;48.154;11.538;2022-09-03T10:42:47;23.70;99.90
5324;DHT22;2684;48.154;11.538;2022-09-03T10:45:18;24.00;99.90
5324;DHT22;2684;48.154;11.538;2022-09-03T10:48:18;24.10;99.90
5324;DHT22;2684;48.154;11.538;2022-09-03T10:50:52;24.60;99.90
5324;DHT22;2684;48.154;11.538;2022-09-03T10:53:36;24.70;99.90
5324;DHT22;2684;48.154;11.538;2022-09-03T10:56:08;24.60;99.90
5324;DHT22;2684;48.154;11.538;2022-09-03T10:58:53;24.70;99.90
5324;DHT22;2684;48.154;11.538;2022-09-03T11:01:30;24.90;99.90
5324;DHT22;2684;48.154;11.538;2022-09-03T11:04:16;25.00;99.90
5324;DHT22;2684;48.154;11.538;2022-09-03T11:06:50;25.40;99.90
5324;DHT22;2684;48.154;11.538;2022-09-03T11:09:20;25.50;99.90
5324;DHT22;2684;48.154;11.538;2022-09-03T11:11:52;25.40;99.90
5324;DHT22;2684;48.154;11.538;2022-09-03T11:14:29;25.50;99.90
5324;DHT22;2684;48.154;11.538;2022-09-03T11:17:02;25.30;99.90
5324;DHT22;2684;48.154;11.538;2022-09-03T11:19:35;25.20;99.90
5324;DHT22;2684;48.154;11.538;2022-09-03T11:22:05;25.30;99.90
5324;DHT22;2684;48.154;11.538;2022-09-03T11:24:33;25.40;99.90
5324;DHT22;2684;48.154;11.538;2022-09-03T11:27:13;25.30;99.90
5324;DHT22;2684;48.154;11.538;2022-09-03T11:29:49;25.30;99.90
5324;DHT22;2684;48.154;11.538;2022-09-03T11:32:23;25.30;99.90
5324;DHT22;2684;48.154;11.538;2022-09-03T11:34:52;25.20;99.90
5324;DHT22;2684;48.154;11.538;2022-09-03T11:37:22;25.30;99.90
5324;DHT22;2684;48.154;11.538;2022-09-03T11:39:57;25.50;99.90
5324;DHT22;2684;48.154;11.538;2022-09-03T11:42:29;25.50;99.90
5324;DHT22;2684;48.154;11.538;2022-09-03T11:45:19;25.80;99.90
5324;DHT22;2684;48.154;11.538;2022-09-03T11:47:47;26.10;99.90
5324;DHT22;2684;48.154;11.538;2022-09-03T11:50:21;26.20;99.90
5324;DHT22;2684;48.154;11.538;2022-09-03T11:52:49;25.90;99.90
5324;DHT22;2684;48.154;11.538;2022-09-03T11:55:27;26.10;99.90
5324;DHT22;2684;48.154;11.538;2022-09-03T11:57:56;25.70;99.90
5324;DHT22;2684;48.154;11.538;2022-09-03T12:00:24;25.70;99.90
5324;DHT22;2684;48.154;11.538;2022-09-03T12:02:55;25.60;99.90
5324;DHT22;2684;48.154;11.538;2022-09-03T12:05:31;25.70;99.90
5324;DHT22;2684;48.154;11.538;2022-09-03T12:10:57;25.60;99.90
5324;DHT22;2684;48.154;11.538;2022-09-03T12:13:45;25.70;99.90
5324;DHT22;2684;48.154;11.538;2022-09-03T12:16:34;25.60;99.90
5324;DHT22;2684;48.154;11.538;2022-09-03T12:19:05;25.30;99.90
5324;DHT22;2684;48.154;11.538;2022-09-03T12:21:37;25.20;99.90
5324;DHT22;2684;48.154;11.538;2022-09-03T12:24:04;25.00;99.90
5324;DHT22;2684;48.154;11.538;2022-09-03T12:26:38;25.00;99.90
5324;DHT22;2684;48.154;11.538;2022-09-03T12:29:21;25.40;99.90
5324;DHT22;2684;48.154;11.538;2022-09-03T12:31:50;25.80;99.90
5324;DHT22;2684;48.154;11.538;2022-09-03T12:34:22;25.80;99.90
5324;DHT22;2684;48.154;11.538;2022-09-03T12:36:51;26.10;99.90
5324;DHT22;2684;48.154;11.538;2022-09-03T12:39:20;26.90;99.90
5324;DHT22;2684;48.154;11.538;2022-09-03T12:41:55;28.40;99.90
5324;DHT22;2684;48.154;11.538;2022-09-03T12:44:26;28.80;99.90
5324;DHT22;2684;48.154;11.538;2022-09-03T12:47:03;28.80;99.90
5324;DHT22;2684;48.154;11.538;2022-09-03T12:49:35;28.50;99.90
5324;DHT22;2684;48.154;11.538;2022-09-03T12:52:08;28.80;99.90
5324;DHT22;2684;48.154;11.538;2022-09-03T12:54:42;29.30;99.90
5324;DHT22;2684;48.154;11.538;2022-09-03T12:57:15;30.10;99.90
5324;DHT22;2684;48.154;11.538;2022-09-03T12:59:47;30.50;99.90
5324;DHT22;2684;48.154;11.538;2022-09-03T13:02:21;30.90;99.90
5324;DHT22;2684;48.154;11.538;2022-09-03T13:04:50;31.50;99.90
5324;DHT22;2684;48.154;11.538;2022-09-03T13:07:24;31.40;99.90
5324;DHT22;2684;48.154;11.538;2022-09-03T13:09:59;30.80;99.90
5324;DHT22;2684;48.154;11.538;2022-09-03T13:12:32;29.20;99.90
5324;DHT22;2684;48.154;11.538;2022-09-03T13:15:08;27.50;99.90
5324;DHT22;2684;48.154;11.538;2022-09-03T13:18:04;26.50;99.90
5324;DHT22;2684;48.154;11.538;2022-09-03T13:20:34;26.10;99.90
5324;DHT22;2684;48.154;11.538;2022-09-03T13:23:21;26.20;99.90
5324;DHT22;2684;48.154;11.538;2022-09-03T13:25:56;26.90;99.90
5324;DHT22;2684;48.154;11.538;2022-09-03T13:28:37;27.70;99.90
5324;DHT22;2684;48.154;11.538;2022-09-03T13:31:21;28.50;99.90
5324;DHT22;2684;48.154;11.538;2022-09-03T13:33:58;29.60;99.90
5324;DHT22;2684;48.154;11.538;2022-09-03T13:36:29;29.80;99.90
5324;DHT22;2684;48.154;11.538;2022-09-03T13:38:59;29.40;99.90
5324;DHT22;2684;48.154;11.538;2022-09-03T13:41:35;29.20;99.90
5324;DHT22;2684;48.154;11.538;2022-09-03T13:44:07;28.40;99.90
5324;DHT22;2684;48.154;11.538;2022-09-03T13:46:42;27.40;99.90
5324;DHT22;2684;48.154;11.538;2022-09-03T13:49:22;27.00;99.90
5324;DHT22;2684;48.154;11.538;2022-09-03T13:52:14;26.70;99.90
5324;DHT22;2684;48.154;11.538;2022-09-03T13:54:51;26.40;99.90
5324;DHT22;2684;48.154;11.538;2022-09-03T13:57:28;25.90;99.90
5324;DHT22;2684;48.154;11.538;2022-09-03T14:00:00;25.50;99.90
5324;DHT22;2684;48.154;11.538;2022-09-03T14:02:32;25.00;99.90
5324;DHT22;2684;48.154;11.538;2022-09-03T14:05:09;24.50;99.90
5324;DHT22;2684;48.154;11.538;2022-09-03T14:07:46;24.20;99.90
5324;DHT22;2684;48.154;11.538;2022-09-03T14:10:22;24.00;99.90
5324;DHT22;2684;48.154;11.538;2022-09-03T14:13:01;23.80;99.90
5324;DHT22;2684;48.154;11.538;2022-09-03T14:15:35;23.80;99.90
5324;DHT22;2684;48.154;11.538;2022-09-03T14:18:12;23.60;99.90
5324;DHT22;2684;48.154;11.538;2022-09-03T14:20:47;23.50;99.90
5324;DHT22;2684;48.154;11.538;2022-09-03T14:23:28;23.30;99.90
5324;DHT22;2684;48.154;11.538;2022-09-03T14:26:02;23.00;99.90
5324;DHT22;2684;48.154;11.538;2022-09-03T14:28:33;22.50;99.90
5324;DHT22;2684;48.154;11.538;2022-09-03T14:31:07;20.80;99.90
5324;DHT22;2684;48.154;11.538;2022-09-03T14:33:42;19.30;99.90
5324;DHT22;2684;48.154;11.538;2022-09-03T14:36:17;18.10;99.90
5324;DHT22;2684;48.154;11.538;2022-09-03T14:39:15;17.10;99.90
5324;DHT22;2684;48.154;11.538;2022-09-03T14:42:22;16.70;99.90
5324;DHT22;2684;48.154;11.538;2022-09-03T14:45:04;16.20;99.90
5324;DHT22;2684;48.154;11.538;2022-09-03T14:47:50;15.90;99.90
5324;DHT22;2684;48.154;11.538;2022-09-03T14:50:33;15.80;99.90
5324;DHT22;2684;48.154;11.538;2022-09-03T14:53:27;15.70;99.90
5324;DHT22;2684;48.154;11.538;2022-09-03T14:56:07;15.60;99.90
5324;DHT22;2684;48.154;11.538;2022-09-03T14:58:55;15.60;99.90
5324;DHT22;2684;48.154;11.538;2022-09-03T15:01:28;15.60;99.90
5324;DHT22;2684;48.154;11.538;2022-09-03T15:04:24;15.70;99.90
5324;DHT22;2684;48.154;11.538;2022-09-03T15:07:07;15.70;99.90
5324;DHT22;2684;48.154;11.538;2022-09-03T15:09:45;15.70;99.90
5324;DHT22;2684;48.154;11.538;2022-09-03T15:12:21;15.70;99.90
5324;DHT22;2684;48.154;11.538;2022-09-03T15:14:52;15.70;99.90
5324;DHT22;2684;48.154;11.538;2022-09-03T15:17:35;15.80;99.90
5324;DHT22;2684;48.154;11.538;2022-09-03T15:20:17;15.70;99.90
5324;DHT22;2684;48.154;11.538;2022-09-03T15:29:47;15.90;99.90
5324;DHT22;2684;48.154;11.538;2022-09-03T15:39:06;15.80;99.90
5324;DHT22;2684;48.154;11.538;2022-09-03T15:41:40;15.80;99.90
5324;DHT22;2684;48.154;11.538;2022-09-03T15:44:12;15.80;99.90
5324;DHT22;2684;48.154;11.538;2022-09-03T15:46:54;15.80;99.90
5324;DHT22;2684;48.154;11.538;2022-09-03T15:49:34;15.70;99.90
5324;DHT22;2684;48.154;11.538;2022-09-03T15:52:14;15.80;99.90
5324;DHT22;2684;48.154;11.538;2022-09-03T15:54:49;15.80;99.90
5324;DHT22;2684;48.154;11.538;2022-09-03T15:57:23;15.90;99.90
5324;DHT22;2684;48.154;11.538;2022-09-03T15:59:57;16.00;99.90
5324;DHT22;2684;48.154;11.538;2022-09-03T16:02:32;16.20;99.90
5324;DHT22;2684;48.154;11.538;2022-09-03T16:05:07;16.30;99.90
5324;DHT22;2684;48.154;11.538;2022-09-03T16:07:52;16.60;99.90
5324;DHT22;2684;48.154;11.538;2022-09-03T16:10:21;16.90;99.90
5324;DHT22;2684;48.154;11.538;2022-09-03T16:13:03;17.00;99.90
5324;DHT22;2684;48.154;11.538;2022-09-03T16:15:36;17.40;99.90
5324;DHT22;2684;48.154;11.538;2022-09-03T16:18:10;17.80;99.90
5324;DHT22;2684;48.154;11.538;2022-09-03T16:20:42;18.30;99.90
5324;DHT22;2684;48.154;11.538;2022-09-03T16:23:17;18.60;99.90
5324;DHT22;2684;48.154;11.538;2022-09-03T16:25:50;18.60;99.90
5324;DHT22;2684;48.154;11.538;2022-09-03T16:28:19;18.50;99.90
5324;DHT22;2684;48.154;11.538;2022-09-03T16:31:00;18.50;99.90
5324;DHT22;2684;48.154;11.538;2022-09-03T16:33:40;18.00;99.90
5324;DHT22;2684;48.154;11.538;2022-09-03T16:36:26;18.10;99.90
5324;DHT22;2684;48.154;11.538;2022-09-03T16:39:01;18.20;99.90
5324;DHT22;2684;48.154;11.538;2022-09-03T16:41:33;18.20;99.90
5324;DHT22;2684;48.154;11.538;2022-09-03T16:44:06;18.10;99.90
5324;DHT22;2684;48.154;11.538;2022-09-03T16:46:43;18.00;99.90
5324;DHT22;2684;48.154;11.538;2022-09-03T16:49:28;17.70;99.90
5324;DHT22;2684;48.154;11.538;2022-09-03T16:52:06;17.40;99.90
5324;DHT22;2684;48.154;11.538;2022-09-03T16:54:49;17.20;99.90